createdAt,value
2023-03-31T00:01:29.206Z,11.20
2023-03-31T00:03:31.027Z,11.19
2023-03-31T00:05:36.437Z,11.20
2023-03-31T00:07:38.260Z,11.19
2023-03-31T00:09:39.786Z,11.19
2023-03-31T00:11:43.003Z,11.18
2023-03-31T00:13:44.573Z,11.15
2023-03-31T00:15:46.398Z,11.14
2023-03-31T00:17:48.046Z,11.13
2023-03-31T00:19:49.866Z,11.12
2023-03-31T00:21:51.511Z,11.11
2023-03-31T00:23:54.745Z,11.09
2023-03-31T00:25:56.791Z,11.09
2023-03-31T00:28:00.327Z,11.06
2023-03-31T00:30:01.915Z,11.05
2023-03-31T00:32:04.094Z,11.03
2023-03-31T00:34:05.867Z,11.01
2023-03-31T00:36:08.522Z,11.00
2023-03-31T00:38:10.351Z,10.98
2023-03-31T00:40:12.069Z,10.97
2023-03-31T00:42:14.214Z,10.96
2023-03-31T00:44:19.261Z,10.93
2023-03-31T00:46:27.927Z,10.93
2023-03-31T00:48:30.097Z,10.90
2023-03-31T00:50:35.878Z,10.89
2023-03-31T00:52:38.160Z,10.88
2023-03-31T00:54:42.724Z,10.86
2023-03-31T00:56:47.514Z,10.84
2023-03-31T00:58:49.544Z,10.84
2023-03-31T01:00:53.197Z,10.84
2023-03-31T01:02:58.429Z,10.82
2023-03-31T01:05:01.279Z,10.81
2023-03-31T01:07:07.512Z,10.81
2023-03-31T01:09:09.695Z,10.79
2023-03-31T01:11:14.604Z,10.79
2023-03-31T01:13:18.792Z,10.79
2023-03-31T01:15:20.521Z,10.78
2023-03-31T01:17:24.476Z,10.79
2023-03-31T01:19:39.742Z,10.79
2023-03-31T01:22:15.438Z,10.80
2023-03-31T01:24:38.927Z,10.80
2023-03-31T01:26:58.329Z,10.81
2023-03-31T01:29:04.444Z,10.79
2023-03-31T01:31:30.775Z,10.80
2023-03-31T01:34:16.544Z,10.82
2023-03-31T01:36:53.677Z,10.82
2023-03-31T01:39:29.734Z,10.81
2023-03-31T01:41:45.517Z,10.80
2023-03-31T01:44:00.086Z,10.79
2023-03-31T01:46:10.480Z,10.78
2023-03-31T01:48:14.923Z,10.79
2023-03-31T01:50:25.572Z,10.80
2023-03-31T01:52:36.443Z,10.80
2023-03-31T01:54:44.295Z,10.81
2023-03-31T01:56:52.984Z,10.79
2023-03-31T01:59:00.090Z,10.81
2023-03-31T02:01:10.247Z,10.84
2023-03-31T02:03:16.467Z,10.84
2023-03-31T02:05:22.947Z,10.85
2023-03-31T02:07:30.230Z,10.85
2023-03-31T02:09:36.182Z,10.87
2023-03-31T02:11:40.161Z,10.86
2023-03-31T02:13:47.260Z,10.89
2023-03-31T02:15:54.770Z,10.90
2023-03-31T02:17:59.115Z,10.90
2023-03-31T02:20:05.860Z,10.91
2023-03-31T02:22:09.372Z,10.91
2023-03-31T02:24:14.809Z,10.92
2023-03-31T02:26:22.870Z,10.93
2023-03-31T02:28:28.633Z,10.94
2023-03-31T02:30:43.402Z,10.96
2023-03-31T02:32:47.518Z,10.95
2023-03-31T02:34:49.653Z,10.97
2023-03-31T02:36:52.247Z,10.97
2023-03-31T02:38:57.452Z,10.98
2023-03-31T02:40:59.727Z,10.99
2023-03-31T02:43:02.093Z,10.99
2023-03-31T02:45:04.883Z,11.00
2023-03-31T02:47:11.327Z,11.02
2023-03-31T02:49:14.678Z,11.01
2023-03-31T02:51:50.096Z,11.04
2023-03-31T02:54:04.213Z,11.03
2023-03-31T02:56:20.416Z,11.03
2023-03-31T02:58:56.232Z,11.08
2023-03-31T03:01:11.488Z,11.05
2023-03-31T03:03:29.502Z,11.04
2023-03-31T03:05:41.143Z,11.04
2023-03-31T03:07:49.693Z,11.04
2023-03-31T03:10:02.995Z,11.03
2023-03-31T03:12:15.412Z,11.04
2023-03-31T03:14:27.098Z,11.05
2023-03-31T03:16:33.283Z,11.05
2023-03-31T03:18:36.672Z,11.06
2023-03-31T03:20:38.735Z,11.05
2023-03-31T03:22:41.308Z,11.07
2023-03-31T03:24:42.911Z,11.07
2023-03-31T03:26:45.167Z,11.07
2023-03-31T03:28:46.924Z,11.08
2023-03-31T03:30:48.562Z,11.07
2023-03-31T03:32:50.228Z,11.08
2023-03-31T03:34:53.714Z,11.09
2023-03-31T03:36:55.610Z,11.10
2023-03-31T03:38:57.138Z,11.09
2023-03-31T03:41:00.036Z,11.11
2023-03-31T03:43:01.923Z,11.11
2023-03-31T03:45:03.999Z,11.11
2023-03-31T03:47:06.084Z,11.10
2023-03-31T03:49:07.939Z,11.11
2023-03-31T03:51:11.246Z,11.12
2023-03-31T03:53:12.791Z,11.11
2023-03-31T03:55:14.791Z,11.10
2023-03-31T03:57:16.437Z,11.11
2023-03-31T03:59:18.451Z,11.11
2023-03-31T04:01:20.051Z,11.12
2023-03-31T04:03:21.867Z,11.12
2023-03-31T04:05:23.627Z,11.13
2023-03-31T04:07:26.622Z,11.13
2023-03-31T04:09:28.313Z,11.13
2023-03-31T04:11:30.603Z,11.12
2023-03-31T04:13:32.402Z,11.11
2023-03-31T04:15:34.225Z,11.11
2023-03-31T04:17:35.983Z,11.11
2023-03-31T04:19:37.597Z,11.09
2023-03-31T04:21:39.371Z,11.10
2023-03-31T04:23:42.791Z,11.10
2023-03-31T04:25:44.684Z,11.11
2023-03-31T04:27:47.830Z,11.10
2023-03-31T04:29:49.460Z,11.09
2023-03-31T04:31:51.326Z,11.10
2023-03-31T04:33:53.526Z,11.09
2023-03-31T04:35:55.216Z,11.10
2023-03-31T04:37:56.829Z,11.10
2023-03-31T04:39:59.882Z,11.11
2023-03-31T04:42:01.748Z,11.12
2023-03-31T04:44:03.703Z,11.11
2023-03-31T04:46:05.644Z,11.11
2023-03-31T04:48:08.373Z,11.11
2023-03-31T04:50:14.581Z,11.11
2023-03-31T04:52:18.015Z,11.11
2023-03-31T04:54:19.758Z,11.09
2023-03-31T04:56:22.704Z,11.08
2023-03-31T04:58:24.326Z,11.09
2023-03-31T05:00:26.270Z,11.08
2023-03-31T05:02:28.440Z,11.09
2023-03-31T05:04:30.087Z,11.08
2023-03-31T05:06:32.734Z,11.08
2023-03-31T05:08:34.367Z,11.08
2023-03-31T05:10:36.205Z,11.09
2023-03-31T05:12:39.714Z,11.08
2023-03-31T05:14:42.109Z,11.10
2023-03-31T05:16:43.748Z,11.10
2023-03-31T05:18:45.545Z,11.11
2023-03-31T05:20:47.371Z,11.11
2023-03-31T05:22:49.143Z,11.11
2023-03-31T05:24:50.938Z,11.12
2023-03-31T05:26:52.522Z,11.11
2023-03-31T05:28:55.985Z,11.13
2023-03-31T05:30:59.586Z,11.14
2023-03-31T05:33:01.593Z,11.13
2023-03-31T05:35:03.933Z,11.13
2023-03-31T05:37:05.723Z,11.15
2023-03-31T05:39:07.347Z,11.15
2023-03-31T05:41:10.377Z,11.17
2023-03-31T05:43:12.213Z,11.18
2023-03-31T05:45:15.860Z,11.18
2023-03-31T05:47:17.811Z,11.20
2023-03-31T05:49:20.029Z,11.21
2023-03-31T05:51:23.745Z,11.21
2023-03-31T05:53:27.021Z,11.23
2023-03-31T05:55:28.610Z,11.24
2023-03-31T05:57:30.277Z,11.25
2023-03-31T05:59:32.839Z,11.27
2023-03-31T06:01:35.919Z,11.28
2023-03-31T06:03:39.795Z,11.29
2023-03-31T06:05:47.527Z,11.32
2023-03-31T06:07:49.830Z,11.33
2023-03-31T06:09:51.434Z,11.34
2023-03-31T06:11:55.362Z,11.35
2023-03-31T06:13:57.255Z,11.36
2023-03-31T06:16:01.038Z,11.38
2023-03-31T06:18:04.617Z,11.38
2023-03-31T06:22:21.714Z,11.38
2023-03-31T06:24:23.677Z,11.38
2023-03-31T06:26:25.538Z,11.38
2023-03-31T06:28:27.507Z,11.36
2023-03-31T06:30:29.140Z,11.37
2023-03-31T06:32:30.760Z,11.37
2023-03-31T06:34:33.834Z,11.38
2023-03-31T06:36:35.717Z,11.38
2023-03-31T06:38:37.938Z,11.38
2023-03-31T06:40:39.752Z,11.38
2023-03-31T06:42:41.615Z,11.39
2023-03-31T06:44:43.502Z,11.40
2023-03-31T06:46:45.297Z,11.40
2023-03-31T06:48:47.398Z,11.40
2023-03-31T06:50:50.460Z,11.39
2023-03-31T06:52:52.275Z,11.39
2023-03-31T06:54:54.136Z,11.41
2023-03-31T06:56:55.753Z,11.43
2023-03-31T06:58:57.581Z,11.43
2023-03-31T07:01:02.153Z,11.44
2023-03-31T07:03:04.008Z,11.44
2023-03-31T07:05:06.844Z,11.45
2023-03-31T07:07:10.380Z,11.48
2023-03-31T07:09:12.041Z,11.49
2023-03-31T07:11:14.759Z,11.51
2023-03-31T07:13:17.885Z,11.51
2023-03-31T07:15:20.135Z,11.54
2023-03-31T07:17:21.779Z,11.56
2023-03-31T07:19:23.462Z,11.57
2023-03-31T07:21:25.444Z,11.59
2023-03-31T07:23:28.759Z,11.60
2023-03-31T07:25:30.618Z,11.64
2023-03-31T07:27:32.510Z,11.66
2023-03-31T07:29:34.352Z,11.68
2023-03-31T07:31:36.045Z,11.72
2023-03-31T07:33:37.796Z,11.75
2023-03-31T07:35:40.757Z,11.77
2023-03-31T07:37:44.936Z,11.81
2023-03-31T07:39:48.569Z,11.82
2023-03-31T07:41:50.482Z,11.85
2023-03-31T07:43:52.492Z,11.87
2023-03-31T07:45:54.425Z,11.90
2023-03-31T07:47:56.485Z,11.95
2023-03-31T07:49:58.949Z,11.96
2023-03-31T07:52:00.760Z,12.00
2023-03-31T07:54:02.911Z,12.01
2023-03-31T07:56:06.756Z,12.06
2023-03-31T07:58:09.437Z,12.09
2023-03-31T08:00:13.047Z,12.12
2023-03-31T08:02:17.392Z,12.16
2023-03-31T08:04:19.378Z,12.22
2023-03-31T08:06:22.907Z,12.26
2023-03-31T08:08:24.882Z,12.30
2023-03-31T08:10:27.750Z,12.32
2023-03-31T08:12:31.447Z,12.36
2023-03-31T08:14:40.732Z,12.41
2023-03-31T08:16:43.257Z,12.46
2023-03-31T08:18:45.312Z,12.51
2023-03-31T08:20:49.039Z,12.57
2023-03-31T08:22:52.403Z,12.65
2023-03-31T08:24:54.794Z,12.73
2023-03-31T08:26:56.344Z,12.81
2023-03-31T08:28:59.440Z,12.87
2023-03-31T08:31:03.901Z,12.94
2023-03-31T08:33:05.852Z,13.03
2023-03-31T08:35:08.962Z,13.08
2023-03-31T08:37:10.503Z,13.14
2023-03-31T08:39:12.297Z,13.19
2023-03-31T08:41:29.774Z,13.25
2023-03-31T08:43:34.956Z,13.30
2023-03-31T08:45:41.828Z,13.37
2023-03-31T08:47:45.441Z,13.46
2023-03-31T08:49:51.838Z,13.56
2023-03-31T08:51:56.970Z,13.63
2023-03-31T08:54:01.961Z,13.71
2023-03-31T08:56:08.327Z,13.78
2023-03-31T08:58:24.071Z,13.84
2023-03-31T09:00:26.107Z,13.87
2023-03-31T09:02:34.879Z,13.89
2023-03-31T09:04:51.516Z,13.92
2023-03-31T09:07:00.197Z,13.94
2023-03-31T09:09:03.450Z,13.94
2023-03-31T09:11:13.367Z,13.98
2023-03-31T09:13:43.356Z,14.02
2023-03-31T09:15:50.685Z,14.06
2023-03-31T09:17:56.341Z,14.08
2023-03-31T09:20:01.662Z,14.11
2023-03-31T09:22:05.802Z,14.12
2023-03-31T09:24:15.487Z,14.16
2023-03-31T09:26:25.369Z,14.20
2023-03-31T09:28:33.575Z,14.23
2023-03-31T09:30:37.673Z,14.25
2023-03-31T09:32:39.814Z,14.28
2023-03-31T09:34:44.026Z,14.31
2023-03-31T09:36:45.615Z,14.35
2023-03-31T09:38:48.373Z,14.39
2023-03-31T09:40:50.249Z,14.45
2023-03-31T09:42:57.144Z,14.52
2023-03-31T09:44:59.365Z,14.56
2023-03-31T09:47:03.041Z,14.63
2023-03-31T09:49:12.315Z,14.73
2023-03-31T09:51:21.137Z,14.82
2023-03-31T09:53:33.123Z,14.92
2023-03-31T09:55:43.667Z,15.02
2023-03-31T09:57:46.569Z,15.10
2023-03-31T09:59:51.152Z,15.21
2023-03-31T10:01:58.849Z,15.41
2023-03-31T10:04:00.806Z,15.50
2023-03-31T10:06:08.431Z,15.57
2023-03-31T10:08:31.029Z,15.73
2023-03-31T10:10:34.323Z,15.81
2023-03-31T10:12:36.428Z,15.91
2023-03-31T10:14:41.567Z,16.01
2023-03-31T10:16:45.600Z,16.10
2023-03-31T10:18:47.534Z,16.19
2023-03-31T10:20:51.102Z,16.31
2023-03-31T10:22:53.229Z,16.34
2023-03-31T10:25:09.551Z,16.47
2023-03-31T10:27:21.007Z,16.64
2023-03-31T10:29:29.458Z,16.75
2023-03-31T10:31:36.777Z,16.88
2023-03-31T10:33:44.348Z,17.00
2023-03-31T10:35:49.027Z,17.07
2023-03-31T10:37:54.814Z,17.13
2023-03-31T10:40:03.494Z,17.21
2023-03-31T10:42:05.376Z,17.25
2023-03-31T10:44:07.033Z,17.28
2023-03-31T10:46:09.272Z,17.32
2023-03-31T10:48:18.927Z,17.39
2023-03-31T10:50:27.849Z,17.48
2023-03-31T10:52:29.598Z,17.56
2023-03-31T10:54:31.539Z,17.64
2023-03-31T10:56:40.718Z,17.78
2023-03-31T10:59:05.336Z,17.86
2023-03-31T11:01:24.664Z,17.98
2023-03-31T11:03:55.125Z,18.10
2023-03-31T11:06:05.734Z,18.14
2023-03-31T11:08:26.416Z,18.17
2023-03-31T11:10:48.383Z,18.21
2023-03-31T11:12:56.494Z,18.23
2023-03-31T11:15:07.917Z,18.25
2023-03-31T11:17:23.546Z,18.30
2023-03-31T11:19:39.601Z,18.34
2023-03-31T11:21:54.571Z,18.41
2023-03-31T11:24:04.801Z,18.45
2023-03-31T11:26:11.510Z,18.47
2023-03-31T11:28:28.197Z,18.52
2023-03-31T11:30:36.230Z,18.54
2023-03-31T11:32:55.060Z,18.59
2023-03-31T11:35:10.506Z,18.62
2023-03-31T11:37:23.776Z,18.65
2023-03-31T11:39:40.711Z,18.67
2023-03-31T11:41:47.934Z,18.68
2023-03-31T11:43:55.528Z,18.70
2023-03-31T11:46:03.724Z,18.69
2023-03-31T11:48:14.439Z,18.71
2023-03-31T11:50:21.109Z,18.71
2023-03-31T11:52:28.750Z,18.74
2023-03-31T11:54:37.185Z,18.78
2023-03-31T11:56:41.507Z,18.81
2023-03-31T11:58:47.412Z,18.84
2023-03-31T12:00:55.933Z,18.85
2023-03-31T12:03:02.492Z,18.88
2023-03-31T12:05:07.033Z,18.85
2023-03-31T12:07:22.181Z,18.86
2023-03-31T12:09:30.597Z,18.88
2023-03-31T12:11:38.552Z,18.93
2023-03-31T12:13:47.612Z,18.98
2023-03-31T12:16:00.393Z,19.03
2023-03-31T12:18:10.467Z,19.03
2023-03-31T12:20:19.757Z,19.04
2023-03-31T12:22:26.177Z,19.05
2023-03-31T12:24:28.411Z,19.05
2023-03-31T12:26:40.230Z,19.08
2023-03-31T12:28:44.604Z,19.07
2023-03-31T12:30:48.645Z,19.08
2023-03-31T12:32:56.731Z,19.10
2023-03-31T12:35:02.488Z,19.12
2023-03-31T12:37:36.680Z,19.16
2023-03-31T12:39:52.914Z,19.23
2023-03-31T12:42:11.774Z,19.23
2023-03-31T12:44:28.868Z,19.27
2023-03-31T12:46:43.731Z,19.29
2023-03-31T12:49:00.175Z,19.29
2023-03-31T12:51:16.585Z,19.31
2023-03-31T12:53:28.477Z,19.32
2023-03-31T12:55:37.341Z,19.32
2023-03-31T12:57:39.259Z,19.31
2023-03-31T12:59:42.793Z,19.33
2023-03-31T13:02:24.436Z,19.42
2023-03-31T13:04:28.036Z,19.40
2023-03-31T13:07:00.344Z,19.50
2023-03-31T13:09:04.865Z,19.47
2023-03-31T13:11:07.018Z,19.52
2023-03-31T13:13:15.456Z,19.55
2023-03-31T13:15:18.016Z,19.58
2023-03-31T13:17:24.812Z,19.62
2023-03-31T13:19:32.640Z,19.67
2023-03-31T13:21:53.105Z,19.75
2023-03-31T13:24:00.831Z,19.79
2023-03-31T13:26:03.447Z,19.85
2023-03-31T13:28:13.949Z,19.89
2023-03-31T13:30:45.749Z,19.98
2023-03-31T13:33:04.448Z,20.07
2023-03-31T13:35:18.935Z,20.09
2023-03-31T13:37:37.984Z,20.10
2023-03-31T13:39:56.690Z,20.09
2023-03-31T13:42:15.158Z,20.07
2023-03-31T13:44:55.366Z,20.06
2023-03-31T13:47:17.899Z,20.03
2023-03-31T13:49:45.267Z,19.99
2023-03-31T13:51:55.249Z,19.96
2023-03-31T13:54:22.308Z,19.91
2023-03-31T13:56:48.633Z,19.90
2023-03-31T13:59:26.911Z,19.87
2023-03-31T14:02:05.109Z,19.85
2023-03-31T14:04:22.532Z,19.80
2023-03-31T14:06:29.507Z,19.77
2023-03-31T14:08:46.957Z,19.76
2023-03-31T14:10:48.620Z,19.73
2023-03-31T14:12:50.317Z,19.72
2023-03-31T14:14:54.067Z,19.71
2023-03-31T14:16:59.506Z,19.70
2023-03-31T14:19:35.414Z,19.70
2023-03-31T14:21:43.416Z,19.69
2023-03-31T14:24:00.667Z,19.68
2023-03-31T14:26:07.874Z,19.66
2023-03-31T14:28:23.515Z,19.65
2023-03-31T14:30:37.837Z,19.64
2023-03-31T14:32:48.141Z,19.61
2023-03-31T14:35:01.674Z,19.59
2023-03-31T14:37:07.464Z,19.55
2023-03-31T14:39:13.154Z,19.56
2023-03-31T14:41:18.666Z,19.54
2023-03-31T14:43:22.786Z,19.54
2023-03-31T14:45:26.914Z,19.52
2023-03-31T14:47:29.454Z,19.50
2023-03-31T14:49:36.158Z,19.52
2023-03-31T14:51:44.447Z,19.51
2023-03-31T14:53:46.352Z,19.48
2023-03-31T14:55:58.799Z,19.46
2023-03-31T14:58:02.410Z,19.44
2023-03-31T15:00:08.968Z,19.42
2023-03-31T15:02:17.071Z,19.40
2023-03-31T15:04:31.975Z,19.37
2023-03-31T15:06:44.718Z,19.33
2023-03-31T15:08:46.588Z,19.30
2023-03-31T15:10:58.658Z,19.26
2023-03-31T15:13:09.291Z,19.19
2023-03-31T15:15:13.675Z,19.11
2023-03-31T15:17:20.951Z,19.06
2023-03-31T15:19:24.702Z,19.00
2023-03-31T15:21:28.770Z,18.98
2023-03-31T15:23:30.400Z,18.93
2023-03-31T15:25:36.352Z,18.90
2023-03-31T15:27:45.635Z,18.87
2023-03-31T15:29:49.898Z,18.82
2023-03-31T15:31:51.580Z,18.80
2023-03-31T15:33:54.073Z,18.77
2023-03-31T15:35:58.646Z,18.74
2023-03-31T15:38:03.045Z,18.72
2023-03-31T15:40:15.270Z,18.68
2023-03-31T15:42:18.491Z,18.67
2023-03-31T15:44:38.084Z,18.68
2023-03-31T15:46:50.118Z,18.63
2023-03-31T15:48:53.707Z,18.60
2023-03-31T15:51:00.891Z,18.56
2023-03-31T15:53:02.471Z,18.49
2023-03-31T15:55:26.180Z,18.44
2023-03-31T15:57:34.398Z,18.31
2023-03-31T16:01:55.869Z,18.09
2023-03-31T16:03:57.675Z,17.99
2023-03-31T16:06:06.635Z,17.90
2023-03-31T16:08:14.142Z,17.79
2023-03-31T16:10:19.310Z,17.68
2023-03-31T16:12:25.523Z,17.57
2023-03-31T16:14:30.755Z,17.46
2023-03-31T16:16:35.139Z,17.36
2023-03-31T16:18:39.917Z,17.27
2023-03-31T16:20:45.161Z,17.19
2023-03-31T16:22:50.328Z,17.10
2023-03-31T16:24:52.245Z,17.01
2023-03-31T16:27:01.373Z,16.90
2023-03-31T16:29:03.997Z,16.79
2023-03-31T16:31:26.211Z,16.69
2023-03-31T16:33:31.583Z,16.55
2023-03-31T16:35:35.477Z,16.44
2023-03-31T16:37:37.266Z,16.35
2023-03-31T16:39:38.884Z,16.22
2023-03-31T16:41:40.849Z,16.10
2023-03-31T16:43:45.230Z,15.97
2023-03-31T16:45:48.431Z,15.86
2023-03-31T16:47:50.234Z,15.76
2023-03-31T16:49:54.214Z,15.67
2023-03-31T16:51:55.834Z,15.58
2023-03-31T16:53:59.402Z,15.52
2023-03-31T16:56:02.103Z,15.46
2023-03-31T16:58:03.766Z,15.38
2023-03-31T17:00:07.159Z,15.32
2023-03-31T17:02:10.787Z,15.25
2023-03-31T17:04:12.557Z,15.18
2023-03-31T17:06:15.718Z,15.12
2023-03-31T17:08:17.997Z,15.05
2023-03-31T17:10:20.178Z,14.98
2023-03-31T17:12:22.221Z,14.91
2023-03-31T17:14:24.246Z,14.86
2023-03-31T17:16:36.375Z,14.80
2023-03-31T17:18:48.699Z,14.73
2023-03-31T17:20:50.269Z,14.65
2023-03-31T17:22:54.062Z,14.58
2023-03-31T17:24:55.669Z,14.54
2023-03-31T17:26:57.573Z,14.49
2023-03-31T17:28:59.462Z,14.45
2023-03-31T17:31:01.612Z,14.39
2023-03-31T17:33:03.652Z,14.35
2023-03-31T17:35:06.880Z,14.31
2023-03-31T17:37:08.567Z,14.27
2023-03-31T17:39:11.532Z,14.22
2023-03-31T17:41:13.884Z,14.19
2023-03-31T17:43:15.626Z,14.14
2023-03-31T17:45:17.437Z,14.08
2023-03-31T17:47:20.493Z,14.03
2023-03-31T17:49:22.626Z,13.98
2023-03-31T17:51:24.696Z,13.95
2023-03-31T17:53:27.154Z,13.90
2023-03-31T17:55:30.196Z,13.88
2023-03-31T17:57:32.657Z,13.83
2023-03-31T17:59:34.928Z,13.79
2023-03-31T18:01:36.931Z,13.74
2023-03-31T18:03:38.601Z,13.69
2023-03-31T18:05:40.456Z,13.64
2023-03-31T18:07:42.045Z,13.58
2023-03-31T18:09:43.661Z,13.56
2023-03-31T18:11:46.675Z,13.52
2023-03-31T18:13:48.429Z,13.45
2023-03-31T18:15:51.446Z,13.39
2023-03-31T18:17:53.528Z,13.34
2023-03-31T18:19:55.450Z,13.30
2023-03-31T18:21:57.054Z,13.26
2023-03-31T18:23:58.673Z,13.21
2023-03-31T18:26:00.370Z,13.17
2023-03-31T18:28:03.680Z,13.13
2023-03-31T18:30:06.297Z,13.10
2023-03-31T18:32:08.137Z,13.07
2023-03-31T18:34:09.860Z,13.04
2023-03-31T18:36:17.187Z,13.00
2023-03-31T18:38:19.142Z,12.97
2023-03-31T18:40:21.225Z,12.92
2023-03-31T18:42:22.983Z,12.89
2023-03-31T18:44:26.182Z,12.83
2023-03-31T18:46:27.777Z,12.82
2023-03-31T18:48:29.869Z,12.77
2023-03-31T18:50:31.587Z,12.73
2023-03-31T18:52:33.472Z,12.68
2023-03-31T18:54:35.321Z,12.64
2023-03-31T18:56:36.916Z,12.60
2023-03-31T18:58:38.553Z,12.56
2023-03-31T19:00:42.277Z,12.52
2023-03-31T19:02:44.374Z,12.47
2023-03-31T19:04:47.194Z,12.42
2023-03-31T19:06:48.817Z,12.37
2023-03-31T19:08:50.847Z,12.31
2023-03-31T19:11:03.297Z,12.26
2023-03-31T19:13:06.426Z,12.18
2023-03-31T19:15:09.700Z,12.12
2023-03-31T19:17:13.048Z,12.08
2023-03-31T19:19:14.749Z,12.02
2023-03-31T19:21:16.483Z,11.96
2023-03-31T19:23:18.619Z,11.92
2023-03-31T19:25:20.628Z,11.87
2023-03-31T19:27:22.244Z,11.83
2023-03-31T19:29:24.004Z,11.78
2023-03-31T19:31:25.911Z,11.76
2023-03-31T19:33:28.994Z,11.69
2023-03-31T19:35:31.963Z,11.67
2023-03-31T19:37:33.627Z,11.62
2023-03-31T19:39:35.736Z,11.58
2023-03-31T19:41:37.319Z,11.54
2023-03-31T19:43:38.923Z,11.50
2023-03-31T19:45:40.520Z,11.45
2023-03-31T19:47:42.240Z,11.41
2023-03-31T19:49:46.082Z,11.35
2023-03-31T19:51:47.875Z,11.30
2023-03-31T19:53:49.509Z,11.23
2023-03-31T19:55:56.071Z,11.18
2023-03-31T19:57:57.886Z,11.12
2023-03-31T19:59:59.509Z,11.06
2023-03-31T20:02:01.353Z,11.01
2023-03-31T20:04:03.063Z,10.95
2023-03-31T20:06:09.277Z,10.88
2023-03-31T20:08:11.095Z,10.80
2023-03-31T20:10:12.703Z,10.74
2023-03-31T20:12:14.434Z,10.68
2023-03-31T20:14:16.285Z,10.62
2023-03-31T20:16:20.604Z,10.58
2023-03-31T20:18:22.506Z,10.53
2023-03-31T20:20:24.115Z,10.48
2023-03-31T20:22:27.520Z,10.43
2023-03-31T20:24:29.671Z,10.37
2023-03-31T20:26:33.466Z,10.33
2023-03-31T20:28:37.290Z,10.29
2023-03-31T20:30:38.822Z,10.26
2023-03-31T20:32:40.695Z,10.22
2023-03-31T20:34:43.476Z,10.18
2023-03-31T20:36:47.150Z,10.14
2023-03-31T20:38:51.937Z,10.11
2023-03-31T20:40:54.230Z,10.06
2023-03-31T20:42:55.842Z,10.03
2023-03-31T20:44:57.435Z,9.99
2023-03-31T20:46:59.577Z,9.97
2023-03-31T20:49:01.262Z,9.92
2023-03-31T20:51:03.021Z,9.87
2023-03-31T20:53:04.776Z,9.79
2023-03-31T20:55:11.174Z,9.74
2023-03-31T20:57:13.061Z,9.69
2023-03-31T20:59:15.145Z,9.63
2023-03-31T21:01:18.392Z,9.59
2023-03-31T21:03:20.313Z,9.53
2023-03-31T21:05:22.291Z,9.49
2023-03-31T21:07:24.234Z,9.44
2023-03-31T21:09:25.904Z,9.40
2023-03-31T21:11:29.290Z,9.36
2023-03-31T21:13:32.225Z,9.32
2023-03-31T21:15:34.040Z,9.26
2023-03-31T21:17:36.199Z,9.23
2023-03-31T21:19:38.309Z,9.19
2023-03-31T21:21:40.098Z,9.14
2023-03-31T21:23:42.116Z,9.12
2023-03-31T21:25:46.740Z,9.08
2023-03-31T21:27:49.832Z,9.05
2023-03-31T21:29:51.395Z,9.03
2023-03-31T21:31:53.180Z,9.00
2023-03-31T21:33:55.512Z,8.97
2023-03-31T21:35:57.807Z,8.94
2023-03-31T21:37:59.698Z,8.91
2023-03-31T21:40:01.249Z,8.90
2023-03-31T21:42:03.331Z,8.86
2023-03-31T21:44:06.676Z,8.86
2023-03-31T21:46:08.417Z,8.83
2023-03-31T21:48:11.801Z,8.80
2023-03-31T21:50:13.630Z,8.76
2023-03-31T21:52:15.482Z,8.75
2023-03-31T21:54:17.286Z,8.72
2023-03-31T21:56:19.249Z,8.68
2023-03-31T21:58:21.146Z,8.65
2023-03-31T22:00:24.571Z,8.61
2023-03-31T22:02:26.544Z,8.57
2023-03-31T22:04:29.525Z,8.55
2023-03-31T22:06:32.352Z,8.53
2023-03-31T22:08:37.576Z,8.49
2023-03-31T22:10:39.451Z,8.47
2023-03-31T22:12:41.069Z,8.45
2023-03-31T22:14:43.171Z,8.42
2023-03-31T22:16:48.882Z,8.40
2023-03-31T22:18:50.747Z,8.37
2023-03-31T22:20:52.784Z,8.37
2023-03-31T22:22:54.857Z,8.34
2023-03-31T22:24:56.773Z,8.33
2023-03-31T22:26:58.771Z,8.32
2023-03-31T22:29:00.690Z,8.28
2023-03-31T22:31:02.312Z,8.28
2023-03-31T22:33:05.469Z,8.25
2023-03-31T22:35:08.065Z,8.23
2023-03-31T22:37:09.824Z,8.21
2023-03-31T22:39:11.629Z,8.17
2023-03-31T22:41:13.413Z,8.14
2023-03-31T22:43:15.240Z,8.12
2023-03-31T22:45:16.944Z,8.09
2023-03-31T22:47:18.763Z,8.06
2023-03-31T22:49:21.828Z,8.05
2023-03-31T22:51:24.454Z,8.02
2023-03-31T22:53:26.614Z,8.00
2023-03-31T22:55:28.720Z,7.98
2023-03-31T22:57:30.716Z,7.95
2023-03-31T22:59:33.154Z,7.90
2023-03-31T23:01:35.074Z,7.89
2023-03-31T23:03:37.500Z,7.86
2023-03-31T23:05:40.644Z,7.83
2023-03-31T23:07:42.780Z,7.82
2023-03-31T23:09:44.437Z,7.81
2023-03-31T23:11:46.096Z,7.79
2023-03-31T23:13:47.844Z,7.78
2023-03-31T23:15:50.109Z,7.75
2023-03-31T23:17:51.745Z,7.73
2023-03-31T23:19:53.405Z,7.70
2023-03-31T23:21:56.796Z,7.69
2023-03-31T23:24:00.711Z,7.68
2023-03-31T23:26:03.293Z,7.66
2023-03-31T23:28:05.550Z,7.65
2023-03-31T23:30:08.543Z,7.62
2023-03-31T23:32:10.266Z,7.59
2023-03-31T23:34:12.677Z,7.56
2023-03-31T23:36:16.304Z,7.54
2023-03-31T23:38:20.104Z,7.53
2023-03-31T23:40:22.119Z,7.50
2023-03-31T23:42:24.278Z,7.49
2023-03-31T23:44:26.630Z,7.48
2023-03-31T23:46:28.325Z,7.46
2023-03-31T23:48:30.543Z,7.45
2023-03-31T23:50:32.522Z,7.45
2023-03-31T23:52:34.842Z,7.44
2023-03-31T23:54:38.088Z,7.42
2023-03-31T23:56:40.179Z,7.42
2023-03-31T23:58:42.486Z,7.40
